createdAt,value
2023-04-07T00:00:59.517Z,83.84
2023-04-07T00:03:30.487Z,83.92
2023-04-07T00:05:58.545Z,83.77
2023-04-07T00:08:28.029Z,83.69
2023-04-07T00:10:55.586Z,83.66
2023-04-07T00:13:27.919Z,83.78
2023-04-07T00:15:55.346Z,84.13
2023-04-07T00:18:28.044Z,84.62
2023-04-07T00:20:55.192Z,85.25
2023-04-07T00:23:22.376Z,85.26
2023-04-07T00:25:51.296Z,85.36
2023-04-07T00:28:22.246Z,85.38
2023-04-07T00:30:52.115Z,85.21
2023-04-07T00:33:22.906Z,85.26
2023-04-07T00:35:52.350Z,84.79
2023-04-07T00:38:24.139Z,84.52
2023-04-07T00:40:59.107Z,84.50
2023-04-07T00:43:31.757Z,84.19
2023-04-07T00:46:01.185Z,84.42
2023-04-07T00:48:31.339Z,84.43
2023-04-07T00:51:00.448Z,84.33
2023-04-07T00:53:32.875Z,84.57
2023-04-07T00:56:00.775Z,84.69
2023-04-07T00:58:31.905Z,84.67
2023-04-07T01:01:01.141Z,84.35
2023-04-07T01:03:35.717Z,84.50
2023-04-07T01:06:06.361Z,84.12
2023-04-07T01:08:55.542Z,83.66
2023-04-07T01:11:37.710Z,82.94
2023-04-07T01:14:06.249Z,82.94
2023-04-07T01:16:53.075Z,82.74
2023-04-07T01:19:34.521Z,83.01
2023-04-07T01:22:28.230Z,83.27
2023-04-07T01:25:30.237Z,83.06
2023-04-07T01:28:04.202Z,83.33
2023-04-07T01:30:39.023Z,83.57
2023-04-07T01:33:07.389Z,83.21
2023-04-07T01:35:36.718Z,82.78
2023-04-07T01:38:05.770Z,82.44
2023-04-07T01:40:33.844Z,81.45
2023-04-07T01:43:03.305Z,80.27
2023-04-07T01:45:31.628Z,79.13
2023-04-07T01:48:01.333Z,78.30
2023-04-07T01:50:30.329Z,77.78
2023-04-07T01:53:05.637Z,77.91
2023-04-07T01:55:33.623Z,77.83
2023-04-07T01:58:07.312Z,77.33
2023-04-07T02:00:37.671Z,77.15
2023-04-07T02:03:20.433Z,76.98
2023-04-07T02:05:53.035Z,77.23
2023-04-07T02:08:24.211Z,76.87
2023-04-07T02:10:55.419Z,76.50
2023-04-07T02:13:24.286Z,76.49
2023-04-07T02:15:51.596Z,76.28
2023-04-07T02:18:19.461Z,76.36
2023-04-07T02:20:48.184Z,76.45
2023-04-07T02:23:15.804Z,76.94
2023-04-07T02:25:45.916Z,76.70
2023-04-07T02:28:15.358Z,77.07
2023-04-07T02:30:43.600Z,76.68
2023-04-07T02:33:15.197Z,76.77
2023-04-07T02:35:44.084Z,76.98
2023-04-07T02:38:12.213Z,77.06
2023-04-07T02:40:40.513Z,76.95
2023-04-07T02:43:09.735Z,77.02
2023-04-07T02:45:37.731Z,77.00
2023-04-07T02:48:17.800Z,77.19
2023-04-07T02:50:53.672Z,77.29
2023-04-07T02:53:23.571Z,77.24
2023-04-07T02:55:51.789Z,77.37
2023-04-07T02:58:21.135Z,77.47
2023-04-07T03:01:11.309Z,77.56
2023-04-07T03:03:44.950Z,77.75
2023-04-07T03:06:16.062Z,78.00
2023-04-07T03:08:52.519Z,78.15
2023-04-07T03:11:20.161Z,78.37
2023-04-07T03:13:49.070Z,78.35
2023-04-07T03:16:17.149Z,78.61
2023-04-07T03:18:58.637Z,78.67
2023-04-07T03:21:30.792Z,78.91
2023-04-07T03:24:00.778Z,79.16
2023-04-07T03:26:28.174Z,79.43
2023-04-07T03:28:56.289Z,79.74
2023-04-07T03:31:24.525Z,80.11
2023-04-07T03:33:52.939Z,80.39
2023-04-07T03:36:24.324Z,80.67
2023-04-07T03:38:54.302Z,80.97
2023-04-07T03:41:21.683Z,81.46
2023-04-07T03:43:56.791Z,81.71
2023-04-07T03:46:27.203Z,81.69
2023-04-07T03:48:57.250Z,81.84
2023-04-07T03:51:24.658Z,81.96
2023-04-07T03:53:55.861Z,82.03
2023-04-07T03:56:31.444Z,82.01
2023-04-07T03:59:00.444Z,82.05
2023-04-07T04:01:33.498Z,81.95
2023-04-07T04:04:08.005Z,81.96
2023-04-07T04:06:36.973Z,82.01
2023-04-07T04:09:11.129Z,82.25
2023-04-07T04:11:42.265Z,82.39
2023-04-07T04:14:10.593Z,82.49
2023-04-07T04:16:39.162Z,82.49
2023-04-07T04:19:13.593Z,82.38
2023-04-07T04:21:43.405Z,82.27
2023-04-07T04:24:14.022Z,82.04
2023-04-07T04:26:41.487Z,81.61
2023-04-07T04:29:12.490Z,81.27
2023-04-07T04:31:41.839Z,81.19
2023-04-07T04:34:09.275Z,81.11
2023-04-07T04:36:38.384Z,81.06
2023-04-07T04:39:06.821Z,80.94
2023-04-07T04:41:36.232Z,80.96
2023-04-07T04:44:03.800Z,80.89
2023-04-07T04:46:34.461Z,80.67
2023-04-07T04:49:04.531Z,80.39
2023-04-07T04:51:32.007Z,80.39
2023-04-07T04:54:05.741Z,80.26
2023-04-07T04:56:35.170Z,80.10
2023-04-07T04:59:05.966Z,80.01
2023-04-07T05:01:51.961Z,79.79
2023-04-07T05:04:23.061Z,79.73
2023-04-07T05:06:58.231Z,79.39
2023-04-07T05:09:32.453Z,78.43
2023-04-07T05:12:01.532Z,77.60
2023-04-07T05:14:31.485Z,77.56
2023-04-07T05:17:03.378Z,77.33
2023-04-07T05:19:31.783Z,77.06
2023-04-07T05:22:04.436Z,76.44
2023-04-07T05:24:35.001Z,76.13
2023-04-07T05:27:02.592Z,75.25
2023-04-07T05:29:34.640Z,74.27
2023-04-07T05:32:06.085Z,73.75
2023-04-07T05:34:35.068Z,73.89
2023-04-07T05:37:16.348Z,73.29
2023-04-07T05:39:45.410Z,72.80
2023-04-07T05:42:15.476Z,72.10
2023-04-07T05:44:44.067Z,71.43
2023-04-07T05:47:14.204Z,70.35
2023-04-07T05:49:45.512Z,69.80
2023-04-07T05:52:14.388Z,69.14
2023-04-07T05:54:44.110Z,68.51
2023-04-07T05:57:13.351Z,67.93
2023-04-07T05:59:43.481Z,68.06
2023-04-07T06:02:11.406Z,66.94
2023-04-07T06:04:39.671Z,66.12
2023-04-07T06:07:08.584Z,65.51
2023-04-07T06:09:35.768Z,64.81
2023-04-07T06:12:04.725Z,63.52
2023-04-07T06:14:32.775Z,62.87
2023-04-07T06:17:02.882Z,62.01
2023-04-07T06:19:39.800Z,60.91
2023-04-07T06:22:07.425Z,59.63
2023-04-07T06:24:35.325Z,58.14
2023-04-07T06:27:04.520Z,56.53
2023-04-07T06:29:33.496Z,55.86
2023-04-07T06:32:02.716Z,54.86
2023-04-07T06:34:30.674Z,53.78
2023-04-07T06:37:00.348Z,52.49
2023-04-07T06:39:30.715Z,51.32
2023-04-07T06:42:01.983Z,50.52
2023-04-07T06:44:29.188Z,49.75
2023-04-07T06:46:57.350Z,49.15
2023-04-07T06:49:26.253Z,48.46
2023-04-07T06:51:53.250Z,47.36
2023-04-07T06:54:20.968Z,46.73
2023-04-07T06:56:53.617Z,45.79
2023-04-07T06:59:22.480Z,45.80
2023-04-07T07:01:50.944Z,44.81
2023-04-07T07:04:19.713Z,44.04
2023-04-07T07:06:48.273Z,43.73
2023-04-07T07:09:15.670Z,43.35
2023-04-07T07:11:54.052Z,42.34
2023-04-07T07:14:21.656Z,42.18
2023-04-07T07:16:48.744Z,41.67
2023-04-07T07:19:17.032Z,41.21
2023-04-07T07:21:44.080Z,40.90
2023-04-07T07:24:12.669Z,40.75
2023-04-07T07:26:42.288Z,40.56
2023-04-07T07:29:11.315Z,40.16
2023-04-07T07:31:41.343Z,39.42
2023-04-07T07:34:17.063Z,39.19
2023-04-07T07:36:47.460Z,38.63
2023-04-07T07:39:23.657Z,38.34
2023-04-07T07:41:50.933Z,38.08
2023-04-07T07:44:23.193Z,37.93
2023-04-07T07:46:50.797Z,37.58
2023-04-07T07:49:19.353Z,37.11
2023-04-07T07:51:54.324Z,37.19
2023-04-07T07:54:25.287Z,37.38
2023-04-07T07:56:53.126Z,37.28
2023-04-07T07:59:23.169Z,36.89
2023-04-07T08:02:01.941Z,36.99
2023-04-07T08:04:35.698Z,36.86
2023-04-07T08:07:04.078Z,35.95
2023-04-07T08:09:35.269Z,35.87
2023-04-07T08:12:11.304Z,35.88
2023-04-07T08:14:43.233Z,35.60
2023-04-07T08:17:18.609Z,35.33
2023-04-07T08:19:51.140Z,35.17
2023-04-07T08:22:20.693Z,34.94
2023-04-07T08:24:49.871Z,35.09
2023-04-07T08:27:20.864Z,34.78
2023-04-07T08:30:07.184Z,34.51
2023-04-07T08:33:01.604Z,34.95
2023-04-07T08:35:31.820Z,33.58
2023-04-07T08:37:59.771Z,33.22
2023-04-07T08:40:43.423Z,33.85
2023-04-07T08:43:11.108Z,33.63
2023-04-07T08:45:39.974Z,33.26
2023-04-07T08:48:17.397Z,32.72
2023-04-07T08:50:45.596Z,31.70
2023-04-07T08:53:14.195Z,31.37
2023-04-07T08:55:42.115Z,31.48
2023-04-07T08:58:12.923Z,31.96
2023-04-07T09:00:42.481Z,32.29
2023-04-07T09:03:21.477Z,31.65
2023-04-07T09:05:50.868Z,31.16
2023-04-07T09:08:18.187Z,30.16
2023-04-07T09:10:53.139Z,30.04
2023-04-07T09:13:20.597Z,29.40
2023-04-07T09:15:51.220Z,29.19
2023-04-07T09:18:20.399Z,29.30
2023-04-07T09:21:00.989Z,29.12
2023-04-07T09:23:35.180Z,28.83
2023-04-07T09:26:25.125Z,28.77
2023-04-07T09:29:02.721Z,28.60
2023-04-07T09:31:48.334Z,28.28
2023-04-07T09:34:36.197Z,28.36
2023-04-07T09:37:06.609Z,28.69
2023-04-07T09:39:56.516Z,28.89
2023-04-07T09:42:31.818Z,28.54
2023-04-07T09:45:01.745Z,27.48
2023-04-07T09:47:30.460Z,26.95
2023-04-07T09:50:01.562Z,26.44
2023-04-07T09:52:59.171Z,26.42
2023-04-07T09:55:26.713Z,26.38
2023-04-07T09:57:57.385Z,26.26
2023-04-07T10:00:26.036Z,26.23
2023-04-07T10:02:55.687Z,25.50
2023-04-07T10:05:25.397Z,25.07
2023-04-07T10:07:57.779Z,25.56
2023-04-07T10:10:28.193Z,26.08
2023-04-07T10:12:56.924Z,26.91
2023-04-07T10:15:24.662Z,26.42
2023-04-07T10:17:52.763Z,26.29
2023-04-07T10:20:23.224Z,26.37
2023-04-07T10:22:51.479Z,26.39
2023-04-07T10:25:25.587Z,26.90
2023-04-07T10:28:04.653Z,26.63
2023-04-07T10:30:35.331Z,26.55
2023-04-07T10:33:18.396Z,26.77
2023-04-07T10:36:08.171Z,26.74
2023-04-07T10:41:56.906Z,26.01
2023-04-07T10:44:46.349Z,26.10
2023-04-07T10:47:13.834Z,26.95
2023-04-07T10:49:41.736Z,27.45
2023-04-07T10:52:11.650Z,28.32
2023-04-07T10:54:41.091Z,28.89
2023-04-07T10:57:09.911Z,29.55
2023-04-07T10:59:40.504Z,30.20
2023-04-07T11:02:17.081Z,30.38
2023-04-07T11:04:46.502Z,30.81
2023-04-07T11:07:14.173Z,31.50
2023-04-07T11:09:43.964Z,31.83
2023-04-07T11:12:24.493Z,32.27
2023-04-07T11:14:53.660Z,32.26
2023-04-07T11:17:25.161Z,32.46
2023-04-07T11:19:57.698Z,31.71
2023-04-07T11:22:30.366Z,31.33
2023-04-07T11:24:58.741Z,31.09
2023-04-07T11:27:28.056Z,30.66
2023-04-07T11:29:57.948Z,29.60
2023-04-07T11:32:27.483Z,28.84
2023-04-07T11:34:59.075Z,27.57
2023-04-07T11:37:35.802Z,26.73
2023-04-07T11:40:03.913Z,25.55
2023-04-07T11:42:40.854Z,25.33
2023-04-07T11:45:20.188Z,25.41
2023-04-07T11:47:51.875Z,25.52
2023-04-07T11:50:41.785Z,25.65
2023-04-07T11:53:09.515Z,25.90
2023-04-07T11:55:38.275Z,25.89
2023-04-07T11:58:09.498Z,26.26
2023-04-07T12:00:56.824Z,26.45
2023-04-07T12:03:27.004Z,26.22
2023-04-07T12:06:00.884Z,26.32
2023-04-07T12:08:40.884Z,26.71
2023-04-07T12:11:09.832Z,27.02
2023-04-07T12:16:32.022Z,28.42
2023-04-07T12:22:07.492Z,29.25
2023-04-07T12:24:35.628Z,29.57
2023-04-07T12:27:03.382Z,30.17
2023-04-07T12:29:38.385Z,30.23
2023-04-07T12:32:05.742Z,31.05
2023-04-07T12:47:55.836Z,32.25
2023-04-07T12:50:36.028Z,32.81
2023-04-07T12:53:05.864Z,33.34
2023-04-07T12:55:38.778Z,33.85
2023-04-07T12:58:09.790Z,34.19
2023-04-07T13:00:39.631Z,34.53
2023-04-07T13:03:13.213Z,34.84
2023-04-07T13:05:42.332Z,35.34
2023-04-07T13:08:14.076Z,35.96
2023-04-07T13:10:44.067Z,36.49
2023-04-07T13:13:21.881Z,37.20
2023-04-07T13:15:53.725Z,37.38
2023-04-07T13:18:22.610Z,36.90
2023-04-07T13:21:14.342Z,36.51
2023-04-07T13:23:46.713Z,36.77
2023-04-07T13:26:17.174Z,36.60
2023-04-07T13:28:46.314Z,36.53
2023-04-07T13:31:16.691Z,36.69
2023-04-07T13:33:48.081Z,36.91
2023-04-07T13:36:17.373Z,37.50
2023-04-07T13:38:47.761Z,38.14
2023-04-07T13:41:17.103Z,38.77
2023-04-07T13:43:52.140Z,39.13
2023-04-07T13:46:28.481Z,39.31
2023-04-07T13:48:58.037Z,39.69
2023-04-07T13:51:28.295Z,40.11
2023-04-07T13:53:58.243Z,40.30
2023-04-07T13:56:28.197Z,40.49
2023-04-07T13:58:57.122Z,40.65
2023-04-07T14:01:26.860Z,41.12
2023-04-07T14:03:58.000Z,41.47
2023-04-07T14:06:29.665Z,41.63
2023-04-07T14:08:58.716Z,41.76
2023-04-07T14:11:29.007Z,41.78
2023-04-07T14:13:59.275Z,41.78
2023-04-07T14:16:28.879Z,41.62
2023-04-07T14:18:59.271Z,41.80
2023-04-07T14:21:28.726Z,41.72
2023-04-07T14:23:58.045Z,41.71
2023-04-07T14:26:27.429Z,41.80
2023-04-07T14:28:59.368Z,41.71
2023-04-07T14:37:28.702Z,41.46
2023-04-07T14:42:38.811Z,41.66
2023-04-07T14:45:09.230Z,41.82
2023-04-07T14:47:39.013Z,41.65
2023-04-07T14:50:08.146Z,41.72
2023-04-07T14:52:49.816Z,41.85
2023-04-07T14:55:19.003Z,41.81
2023-04-07T14:57:48.635Z,42.16
2023-04-07T15:00:18.363Z,42.78
2023-04-07T15:03:07.263Z,42.93
2023-04-07T15:05:39.597Z,43.20
2023-04-07T15:08:08.866Z,43.48
2023-04-07T15:10:39.499Z,43.51
2023-04-07T15:13:08.178Z,43.61
2023-04-07T15:15:36.626Z,44.27
2023-04-07T15:18:10.536Z,44.23
2023-04-07T15:20:39.068Z,44.23
2023-04-07T15:23:11.073Z,43.65
2023-04-07T15:25:41.126Z,43.23
2023-04-07T15:28:09.604Z,43.21
2023-04-07T15:30:42.491Z,43.30
2023-04-07T15:33:15.524Z,43.29
2023-04-07T15:35:48.885Z,42.88
2023-04-07T15:38:20.511Z,42.66
2023-04-07T15:40:49.637Z,42.74
2023-04-07T15:43:20.578Z,42.70
2023-04-07T15:45:50.673Z,42.43
2023-04-07T15:48:24.322Z,42.40
2023-04-07T15:50:53.988Z,42.68
2023-04-07T15:53:24.693Z,42.73
2023-04-07T15:55:55.094Z,42.93
2023-04-07T15:58:24.502Z,43.20
2023-04-07T16:00:53.418Z,43.58
2023-04-07T16:03:28.653Z,43.94
2023-04-07T16:06:00.142Z,44.10
2023-04-07T16:08:28.954Z,44.33
2023-04-07T16:10:58.907Z,44.48
2023-04-07T16:13:33.734Z,44.63
2023-04-07T16:16:09.345Z,44.87
2023-04-07T16:18:44.378Z,45.25
2023-04-07T16:21:33.042Z,45.63
2023-04-07T16:24:18.416Z,46.11
2023-04-07T16:26:51.479Z,46.58
2023-04-07T16:29:20.588Z,47.22
2023-04-07T16:31:57.505Z,47.76
2023-04-07T16:34:32.165Z,48.64
2023-04-07T16:37:04.754Z,49.53
2023-04-07T16:39:57.514Z,50.42
2023-04-07T16:42:27.043Z,51.21
2023-04-07T16:44:57.736Z,51.62
2023-04-07T16:47:26.578Z,52.09
2023-04-07T16:50:00.069Z,52.77
2023-04-07T16:52:41.422Z,53.36
2023-04-07T16:55:10.937Z,53.96
2023-04-07T16:57:40.129Z,54.42
2023-04-07T17:00:11.246Z,54.97
2023-04-07T17:02:46.509Z,55.08
